Shiocton, Wisconsin
Current Conditions -  °F | °C
As of 5:45 AM on Sunday 25 Jan 2015 (Local Time) from KATW Reporting Station
Overcast Overcast  
Wind Chill:   Ceiling: 2000
Heat Index: 19°   Visibility: 10mi
Dew Point: 10°   Wind: 18mph
Humidity: 68%   Direction: 40°NE
Pressure: 29.86"   Gusts: 26mph
Location:  44.44°N, 88.58°W
Report Text: KATW 251145Z 04016G23KT 10SM OVC020 M07/M12 A2986
Loading
Personal Weather Stations






























Interactive Weather Map New forecast layout! Learn more

10-Day Weather Forecast

Advertisements
Track Severe Weather on mobile